LEBZ/BJZ METAR and TAF weather

Enter ICAO airport designator
Station Type Date Time Source
LEBZ METAR 2019/04/20 19:00 UTC NOAA

LEBZ 201900Z 10011KT 070V140 CAVOK 18/09 Q1014


Station Type Date Time Source
LEBZ Decoded METAR 2019/04/20 19:00 UTC NOAA

Badajoz / Talavera La Real, Spain (LEBZ) 38-53N 006-49W 192M
Apr 20, 2019 - 03:00 PM EDT / 2019.04.20 1900 UTC
Wind: from the E (100 degrees) at 13 MPH (11 KT) (direction variable):0
Visibility: greater than 7 mile(s):0
Temperature: 64 F (18 C)
Dew Point: 48 F (9 C)
Relative Humidity: 55%
Pressure (altimeter): 29.94 in. Hg (1014 hPa)
ob: LEBZ 201900Z 10011KT 070V140 CAVOK 18/09 Q1014
cycle: 19

Station Type Date Time Source
LEBZ TAF 2019/04/20 18:27 UTC NOAA

TAF LEBZ 201700Z 2018/2118 09012KT CAVOK TX22/2115Z TN08/2106Z
TEMPO 2018/2020 10016G28KT

Example: see airport list